createdAt,value
2022-12-06T00:00:03.432Z,1018.53
2022-12-06T00:01:03.371Z,1018.54
2022-12-06T00:02:03.435Z,1018.55
2022-12-06T00:03:03.417Z,1018.58
2022-12-06T00:04:03.344Z,1018.58
2022-12-06T00:05:03.335Z,1018.59
2022-12-06T00:06:03.310Z,1018.53
2022-12-06T00:07:03.301Z,1018.54
2022-12-06T00:08:03.317Z,1018.49
2022-12-06T00:09:03.298Z,1018.51
2022-12-06T00:10:03.259Z,1018.45
2022-12-06T00:11:03.248Z,1018.45
2022-12-06T00:12:03.230Z,1018.45
2022-12-06T00:13:03.240Z,1018.46
2022-12-06T00:14:03.206Z,1018.45
2022-12-06T00:15:03.201Z,1018.43
2022-12-06T00:16:03.221Z,1018.42
2022-12-06T00:17:03.200Z,1018.42
2022-12-06T00:18:03.169Z,1018.43
2022-12-06T00:19:03.165Z,1018.42
2022-12-06T00:20:03.115Z,1018.45
2022-12-06T00:21:03.201Z,1018.45
2022-12-06T00:22:03.106Z,1018.49
2022-12-06T00:23:03.110Z,1018.47
2022-12-06T00:24:03.318Z,1018.46
2022-12-06T00:25:03.093Z,1018.43
2022-12-06T00:26:03.032Z,1018.45
2022-12-06T00:27:03.050Z,1018.45
2022-12-06T00:28:03.028Z,1018.45
2022-12-06T00:29:03.020Z,1018.47
2022-12-06T00:30:03.020Z,1018.47
2022-12-06T00:31:02.988Z,1018.47
2022-12-06T00:32:03.031Z,1018.42
2022-12-06T00:33:02.977Z,1018.44
2022-12-06T00:34:02.952Z,1018.41
2022-12-06T00:35:02.928Z,1018.41
2022-12-06T00:36:02.899Z,1018.41
2022-12-06T00:37:02.916Z,1018.41
2022-12-06T00:38:02.886Z,1018.41
2022-12-06T00:39:02.896Z,1018.40
2022-12-06T00:40:02.906Z,1018.40
2022-12-06T00:41:02.849Z,1018.34
2022-12-06T00:42:02.864Z,1018.42
2022-12-06T00:43:02.812Z,1018.43
2022-12-06T00:44:02.836Z,1018.37
2022-12-06T00:45:02.787Z,1018.40
2022-12-06T00:46:02.850Z,1018.38
2022-12-06T00:47:02.757Z,1018.42
2022-12-06T00:48:02.781Z,1018.39
2022-12-06T00:49:02.761Z,1018.41
2022-12-06T00:50:02.716Z,1018.44
2022-12-06T00:51:02.726Z,1018.41
2022-12-06T00:52:10.213Z,1018.38
2022-12-06T00:53:02.677Z,1018.42
2022-12-06T00:54:02.677Z,1018.46
2022-12-06T00:55:02.729Z,1018.49
2022-12-06T00:56:02.642Z,1018.47
2022-12-06T00:57:02.657Z,1018.48
2022-12-06T00:58:02.620Z,1018.48
2022-12-06T00:59:02.613Z,1018.48
2022-12-06T01:00:02.751Z,1018.48
2022-12-06T01:01:02.615Z,1018.45
2022-12-06T01:02:02.595Z,1018.44
2022-12-06T01:03:02.634Z,1018.43
2022-12-06T01:04:02.552Z,1018.43
2022-12-06T01:05:02.551Z,1018.45
2022-12-06T01:06:12.257Z,1018.34
2022-12-06T01:09:19.840Z,1018.39
2022-12-06T01:10:27.388Z,1018.37
2022-12-06T01:11:28.559Z,1018.46
2022-12-06T01:14:36.122Z,1018.50
2022-12-06T01:15:45.951Z,1018.47
2022-12-06T01:18:03.053Z,1018.48
2022-12-06T01:18:34.781Z,1018.45
2022-12-06T01:19:07.772Z,1018.43
2022-12-06T01:20:07.744Z,1018.43
2022-12-06T01:21:07.738Z,1018.46
2022-12-06T01:22:07.714Z,1018.47
2022-12-06T01:23:07.704Z,1018.44
2022-12-06T01:24:07.685Z,1018.46
2022-12-06T01:25:07.713Z,1018.39
2022-12-06T01:26:07.666Z,1018.44
2022-12-06T01:27:07.643Z,1018.43
2022-12-06T01:28:07.672Z,1018.42
2022-12-06T01:29:07.619Z,1018.41
2022-12-06T01:30:07.593Z,1018.39
2022-12-06T01:31:07.687Z,1018.44
2022-12-06T01:32:07.585Z,1018.43
2022-12-06T01:33:07.558Z,1018.40
2022-12-06T01:34:07.563Z,1018.42
2022-12-06T01:35:07.534Z,1018.40
2022-12-06T01:36:07.518Z,1018.38
2022-12-06T01:37:07.525Z,1018.46
2022-12-06T01:38:07.493Z,1018.44
2022-12-06T01:39:07.512Z,1018.40
2022-12-06T01:40:07.479Z,1018.38
2022-12-06T01:41:07.459Z,1018.45
2022-12-06T01:42:07.446Z,1018.43
2022-12-06T01:43:07.444Z,1018.40
2022-12-06T01:44:07.419Z,1018.44
2022-12-06T01:45:07.428Z,1018.44
2022-12-06T01:46:07.465Z,1018.43
2022-12-06T01:47:07.385Z,1018.44
2022-12-06T01:48:07.367Z,1018.44
2022-12-06T01:49:07.403Z,1018.46
2022-12-06T01:50:07.379Z,1018.43
2022-12-06T01:51:07.353Z,1018.41
2022-12-06T01:52:07.310Z,1018.42
2022-12-06T01:53:07.303Z,1018.41
2022-12-06T01:54:07.304Z,1018.38
2022-12-06T01:55:07.282Z,1018.39
2022-12-06T01:57:34.355Z,1018.39
2022-12-06T01:58:06.095Z,1018.36
2022-12-06T01:58:39.095Z,1018.33
2022-12-06T01:59:39.036Z,1018.30
2022-12-06T02:00:39.081Z,1018.35
2022-12-06T02:01:39.037Z,1018.34
2022-12-06T02:02:39.069Z,1018.34
2022-12-06T02:03:39.038Z,1018.32
2022-12-06T02:04:39.046Z,1018.35
2022-12-06T02:05:40.845Z,1018.31
2022-12-06T02:06:38.967Z,1018.29
2022-12-06T02:07:38.970Z,1018.30
2022-12-06T02:08:38.972Z,1018.28
2022-12-06T02:09:38.934Z,1018.26
2022-12-06T02:10:38.912Z,1018.27
2022-12-06T02:11:38.903Z,1018.28
2022-12-06T02:12:38.940Z,1018.30
2022-12-06T02:13:38.847Z,1018.28
2022-12-06T02:14:38.837Z,1018.31
2022-12-06T02:15:38.809Z,1018.31
2022-12-06T02:16:38.880Z,1018.30
2022-12-06T02:17:38.863Z,1018.31
2022-12-06T02:18:38.816Z,1018.31
2022-12-06T02:19:38.794Z,1018.29
2022-12-06T02:20:38.768Z,1018.31
2022-12-06T02:21:38.750Z,1018.29
2022-12-06T02:22:38.740Z,1018.31
2022-12-06T02:23:38.703Z,1018.29
2022-12-06T02:24:38.719Z,1018.27
2022-12-06T02:25:43.134Z,1018.26
2022-12-06T02:26:38.721Z,1018.23
2022-12-06T02:27:38.658Z,1018.23
2022-12-06T02:28:38.681Z,1018.22
2022-12-06T02:29:38.669Z,1018.19
2022-12-06T02:30:38.772Z,1018.20
2022-12-06T02:31:38.617Z,1018.18
2022-12-06T02:32:38.634Z,1018.20
2022-12-06T02:33:38.569Z,1018.16
2022-12-06T02:34:38.599Z,1018.18
2022-12-06T02:35:38.572Z,1018.18
2022-12-06T02:36:38.599Z,1018.19
2022-12-06T02:37:38.544Z,1018.18
2022-12-06T02:38:38.508Z,1018.18
2022-12-06T02:39:38.540Z,1018.19
2022-12-06T02:40:38.523Z,1018.19
2022-12-06T02:41:38.511Z,1018.18
2022-12-06T02:42:38.474Z,1018.19
2022-12-06T02:43:38.451Z,1018.15
2022-12-06T02:44:38.438Z,1018.15
2022-12-06T02:45:38.451Z,1018.13
2022-12-06T02:46:38.469Z,1018.08
2022-12-06T02:47:38.398Z,1018.10
2022-12-06T02:48:38.410Z,1018.09
2022-12-06T02:49:38.366Z,1018.12
2022-12-06T02:50:38.381Z,1018.16
2022-12-06T02:51:38.391Z,1018.13
2022-12-06T02:52:38.330Z,1018.15
2022-12-06T02:53:38.326Z,1018.11
2022-12-06T02:54:38.314Z,1018.15
2022-12-06T02:55:38.306Z,1018.15
2022-12-06T02:56:38.324Z,1018.13
2022-12-06T02:57:38.291Z,1018.13
2022-12-06T02:58:38.261Z,1018.12
2022-12-06T02:59:38.241Z,1018.13
2022-12-06T03:00:38.244Z,1018.14
2022-12-06T03:01:38.316Z,1018.14
2022-12-06T03:02:38.285Z,1018.13
2022-12-06T03:03:38.186Z,1018.14
2022-12-06T03:04:38.214Z,1018.10
2022-12-06T03:05:38.224Z,1018.12
2022-12-06T03:06:38.163Z,1018.11
2022-12-06T03:07:38.223Z,1018.12
2022-12-06T03:08:38.164Z,1018.12
2022-12-06T03:09:38.131Z,1018.15
2022-12-06T03:10:38.103Z,1018.12
2022-12-06T03:11:38.077Z,1018.14
2022-12-06T03:12:38.083Z,1018.14
2022-12-06T03:13:38.073Z,1018.14
2022-12-06T03:14:38.081Z,1018.13
2022-12-06T03:15:38.096Z,1018.19
2022-12-06T03:16:38.024Z,1018.18
2022-12-06T03:17:38.022Z,1018.19
2022-12-06T03:18:38.058Z,1018.19
2022-12-06T03:19:37.987Z,1018.16
2022-12-06T08:06:24.526Z,1018.07
2022-12-06T08:07:24.506Z,1018.03
2022-12-06T08:08:28.548Z,1018.06
2022-12-06T08:09:24.489Z,1018.04
2022-12-06T08:10:24.419Z,1018.06
2022-12-06T08:11:24.417Z,1018.08
2022-12-06T08:12:24.430Z,1018.11
2022-12-06T08:13:24.385Z,1018.08
2022-12-06T08:14:24.398Z,1018.10
2022-12-06T08:15:24.368Z,1018.11
2022-12-06T08:16:24.428Z,1018.08
2022-12-06T08:17:24.315Z,1018.12
2022-12-06T08:18:24.333Z,1018.13
2022-12-06T08:19:24.294Z,1018.15
2022-12-06T08:20:24.332Z,1018.15
2022-12-06T08:21:24.295Z,1018.19
2022-12-06T08:22:24.281Z,1018.16
2022-12-06T08:23:27.942Z,1018.17
2022-12-06T08:25:38.592Z,1018.20
2022-12-06T08:26:38.336Z,1018.23
2022-12-06T08:27:38.546Z,1018.24
2022-12-06T08:28:38.387Z,1018.23
2022-12-06T08:29:38.391Z,1018.27
2022-12-06T08:30:38.364Z,1018.23
2022-12-06T08:31:38.537Z,1018.23
2022-12-06T08:32:38.213Z,1018.25
2022-12-06T08:33:38.243Z,1018.25
2022-12-06T08:34:38.282Z,1018.23
2022-12-06T08:35:38.307Z,1018.22
2022-12-06T08:36:38.559Z,1018.21
2022-12-06T08:37:38.539Z,1018.22
2022-12-06T08:38:38.281Z,1018.22
2022-12-06T08:39:45.641Z,1018.21
2022-12-06T08:40:38.088Z,1018.22
2022-12-06T08:41:38.107Z,1018.25
2022-12-06T08:42:38.113Z,1018.25
2022-12-06T08:43:38.037Z,1018.22
2022-12-06T08:44:38.062Z,1018.24
2022-12-06T08:45:38.111Z,1018.23
2022-12-06T08:46:38.067Z,1018.23
2022-12-06T08:47:38.061Z,1018.21
2022-12-06T08:48:42.783Z,1018.23
2022-12-06T08:49:39.045Z,1018.25
2022-12-06T08:50:38.028Z,1018.24
2022-12-06T08:51:37.963Z,1018.28
2022-12-06T08:52:37.975Z,1018.28
2022-12-06T08:53:37.939Z,1018.26
2022-12-06T08:54:37.988Z,1018.33
2022-12-06T08:55:37.907Z,1018.35
2022-12-06T08:56:37.968Z,1018.33
2022-12-06T08:57:37.947Z,1018.33
2022-12-06T08:58:37.888Z,1018.30
2022-12-06T08:59:37.928Z,1018.37
2022-12-06T09:00:37.857Z,1018.36
2022-12-06T09:01:38.763Z,1018.34
2022-12-06T09:02:37.880Z,1018.36
2022-12-06T09:03:37.791Z,1018.38
2022-12-06T09:04:37.883Z,1018.39
2022-12-06T09:05:37.776Z,1018.35
2022-12-06T09:06:37.815Z,1018.39
2022-12-06T09:07:37.794Z,1018.40
2022-12-06T09:08:37.821Z,1018.39
2022-12-06T09:09:37.724Z,1018.38
2022-12-06T09:10:37.730Z,1018.38
2022-12-06T09:11:37.711Z,1018.37
2022-12-06T09:12:37.711Z,1018.40
2022-12-06T09:13:37.697Z,1018.36
2022-12-06T09:14:37.692Z,1018.41
2022-12-06T09:15:37.699Z,1018.44
2022-12-06T09:16:37.635Z,1018.42
2022-12-06T09:17:37.595Z,1018.43
2022-12-06T09:18:37.612Z,1018.47
2022-12-06T09:19:37.596Z,1018.45
2022-12-06T09:20:37.580Z,1018.45
2022-12-06T09:21:37.578Z,1018.48
2022-12-06T09:22:37.550Z,1018.45
2022-12-06T09:23:37.525Z,1018.50
2022-12-06T09:24:37.564Z,1018.45
2022-12-06T09:25:37.497Z,1018.46
2022-12-06T09:26:37.495Z,1018.45
2022-12-06T09:27:37.464Z,1018.45
2022-12-06T09:28:37.511Z,1018.46
2022-12-06T09:29:40.592Z,1018.48
2022-12-06T09:30:37.457Z,1018.46
2022-12-06T09:31:37.784Z,1018.46
2022-12-06T09:32:37.467Z,1018.47
2022-12-06T09:33:37.396Z,1018.47
2022-12-06T09:34:37.403Z,1018.48
2022-12-06T09:35:37.375Z,1018.49
2022-12-06T09:36:37.372Z,1018.49
2022-12-06T09:37:37.329Z,1018.47
2022-12-06T09:38:37.354Z,1018.47
2022-12-06T09:39:37.309Z,1018.49
2022-12-06T09:40:42.566Z,1018.44
2022-12-06T09:41:38.316Z,1018.50
2022-12-06T09:42:37.315Z,1018.50
2022-12-06T09:43:37.371Z,1018.51
2022-12-06T09:44:37.266Z,1018.50
2022-12-06T09:45:37.304Z,1018.48
2022-12-06T09:46:37.320Z,1018.57
2022-12-06T09:47:37.255Z,1018.54
2022-12-06T09:48:37.233Z,1018.47
2022-12-06T09:49:37.208Z,1018.44
2022-12-06T09:50:37.219Z,1018.48
2022-12-06T09:51:37.154Z,1018.50
2022-12-06T09:52:37.183Z,1018.43
2022-12-06T09:53:37.864Z,1018.48
2022-12-06T09:54:37.151Z,1018.50
2022-12-06T09:55:37.127Z,1018.48
2022-12-06T09:56:37.184Z,1018.45
2022-12-06T09:57:37.104Z,1018.45
2022-12-06T09:58:37.108Z,1018.42
2022-12-06T09:59:37.133Z,1018.42
2022-12-06T10:00:37.067Z,1018.39
2022-12-06T10:01:37.173Z,1018.42
2022-12-06T10:02:37.289Z,1018.36
2022-12-06T10:03:37.038Z,1018.37
2022-12-06T10:04:37.035Z,1018.35
2022-12-06T10:05:37.054Z,1018.35
2022-12-06T10:06:37.011Z,1018.34
2022-12-06T10:07:37.012Z,1018.31
2022-12-06T10:08:37.098Z,1018.32
2022-12-06T10:09:36.951Z,1018.37
2022-12-06T10:10:37.014Z,1018.37
2022-12-06T10:11:36.918Z,1018.34
2022-12-06T10:12:36.945Z,1018.35
2022-12-06T10:13:36.912Z,1018.31
2022-12-06T10:14:36.894Z,1018.37
2022-12-06T10:15:36.864Z,1018.28
2022-12-06T10:16:36.967Z,1018.31
2022-12-06T10:17:36.861Z,1018.28
2022-12-06T10:18:36.838Z,1018.26
2022-12-06T10:19:36.864Z,1018.27
2022-12-06T10:20:36.853Z,1018.24
2022-12-06T10:21:36.783Z,1018.23
2022-12-06T10:22:36.799Z,1018.25
2022-12-06T10:23:36.747Z,1018.24
2022-12-06T10:24:36.785Z,1018.22
2022-12-06T10:25:36.753Z,1018.17
2022-12-06T10:26:36.745Z,1018.16
2022-12-06T10:27:36.709Z,1018.14
2022-12-06T10:28:36.741Z,1018.10
2022-12-06T10:29:36.662Z,1018.14
2022-12-06T10:30:36.665Z,1018.12
2022-12-06T10:31:36.872Z,1018.11
2022-12-06T10:32:36.652Z,1018.10
2022-12-06T10:33:36.627Z,1018.10
2022-12-06T10:34:36.609Z,1018.09
2022-12-06T10:35:36.595Z,1018.07
2022-12-06T10:36:36.583Z,1018.13
2022-12-06T10:37:36.588Z,1018.10
2022-12-06T10:38:36.570Z,1018.12
2022-12-06T10:39:36.561Z,1018.07
2022-12-06T10:40:36.553Z,1018.10
2022-12-06T10:41:36.553Z,1018.08
2022-12-06T10:42:36.528Z,1018.09
2022-12-06T10:43:36.524Z,1018.10
2022-12-06T10:44:36.517Z,1018.13
2022-12-06T10:45:36.511Z,1018.10
2022-12-06T10:46:36.637Z,1018.08
2022-12-06T10:47:36.475Z,1018.09
2022-12-06T10:48:36.469Z,1018.08
2022-12-06T10:49:36.478Z,1018.09
2022-12-06T10:50:36.415Z,1018.08
2022-12-06T10:51:36.390Z,1018.04
2022-12-06T10:52:36.387Z,1018.00
2022-12-06T10:53:36.417Z,1018.04
2022-12-06T10:54:36.369Z,1018.06
2022-12-06T10:55:36.370Z,1018.00
2022-12-06T10:56:36.368Z,1018.02
2022-12-06T10:57:36.311Z,1018.00
2022-12-06T10:58:36.302Z,1018.00
2022-12-06T10:59:36.313Z,1017.96
2022-12-06T11:00:36.358Z,1018.02
2022-12-06T11:01:36.381Z,1018.00
2022-12-06T11:02:36.297Z,1018.01
2022-12-06T11:03:36.250Z,1018.02
2022-12-06T11:04:36.263Z,1018.02
2022-12-06T11:05:36.222Z,1017.95
2022-12-06T11:06:36.225Z,1017.93
2022-12-06T11:07:36.287Z,1017.94
2022-12-06T11:08:36.193Z,1017.92
2022-12-06T11:09:36.210Z,1017.94
2022-12-06T11:10:36.158Z,1017.91
2022-12-06T11:11:36.201Z,1017.92
2022-12-06T11:12:36.137Z,1017.86
2022-12-06T11:13:36.130Z,1017.93
2022-12-06T11:14:36.125Z,1017.92
2022-12-06T11:15:36.110Z,1017.95
2022-12-06T11:16:36.173Z,1017.95
2022-12-06T11:17:36.132Z,1017.95
2022-12-06T11:18:36.060Z,1017.93
2022-12-06T11:19:36.060Z,1017.94
2022-12-06T11:20:36.045Z,1017.93
2022-12-06T11:21:36.040Z,1017.88
2022-12-06T11:22:36.067Z,1017.86
2022-12-06T11:23:36.040Z,1017.88
2022-12-06T11:24:36.006Z,1017.87
2022-12-06T11:25:36.000Z,1017.82
2022-12-06T11:26:35.972Z,1017.82
2022-12-06T11:27:35.956Z,1017.82
2022-12-06T11:28:35.928Z,1017.83
2022-12-06T11:29:35.917Z,1017.85
2022-12-06T11:30:35.919Z,1017.84
2022-12-06T11:31:36.016Z,1017.86
2022-12-06T11:32:35.899Z,1017.80
2022-12-06T11:33:35.869Z,1017.82
2022-12-06T11:34:35.868Z,1017.85
2022-12-06T11:35:35.840Z,1017.81
2022-12-06T11:36:35.839Z,1017.82
2022-12-06T11:37:40.027Z,1017.78
2022-12-06T11:38:36.811Z,1017.83
2022-12-06T11:39:35.835Z,1017.80
2022-12-06T11:40:35.790Z,1017.77
2022-12-06T11:41:35.784Z,1017.81
2022-12-06T11:42:35.785Z,1017.80
2022-12-06T11:43:35.760Z,1017.81
2022-12-06T11:44:35.741Z,1017.83
2022-12-06T11:45:35.721Z,1017.84
2022-12-06T11:46:35.802Z,1017.79
2022-12-06T11:47:35.713Z,1017.81
2022-12-06T11:48:35.692Z,1017.82
2022-12-06T11:49:35.701Z,1017.81
2022-12-06T11:50:35.672Z,1017.83
2022-12-06T11:51:35.663Z,1017.79
2022-12-06T11:52:35.657Z,1017.85
2022-12-06T11:53:35.632Z,1017.86
2022-12-06T11:54:35.639Z,1017.86
2022-12-06T11:55:35.610Z,1017.86
2022-12-06T11:56:35.619Z,1017.88
2022-12-06T11:57:35.591Z,1017.88
2022-12-06T11:58:35.568Z,1017.89
2022-12-06T11:59:35.528Z,1017.88
2022-12-06T12:00:35.547Z,1017.88
2022-12-06T12:01:35.609Z,1017.87
2022-12-06T12:02:35.578Z,1017.91
2022-12-06T12:03:35.574Z,1017.89
2022-12-06T12:04:35.504Z,1017.89
2022-12-06T12:05:35.474Z,1017.90
2022-12-06T12:06:35.483Z,1017.88
2022-12-06T12:07:35.505Z,1017.88
2022-12-06T12:08:35.518Z,1017.90
2022-12-06T12:09:35.416Z,1017.87
2022-12-06T12:10:35.412Z,1017.82
2022-12-06T12:11:35.405Z,1017.83
2022-12-06T12:12:35.412Z,1017.83
2022-12-06T12:13:35.374Z,1017.77
2022-12-06T12:14:35.374Z,1017.73
2022-12-06T12:15:35.328Z,1017.73
2022-12-06T12:16:35.393Z,1017.80
2022-12-06T12:17:35.333Z,1017.75
2022-12-06T12:18:35.301Z,1017.74
2022-12-06T12:19:35.274Z,1017.73
2022-12-06T12:20:35.284Z,1017.70
2022-12-06T12:21:35.273Z,1017.71
2022-12-06T12:22:35.258Z,1017.67
2022-12-06T12:23:35.288Z,1017.69
2022-12-06T12:24:38.351Z,1017.70
2022-12-06T12:25:36.228Z,1017.67
2022-12-06T12:26:35.202Z,1017.69
2022-12-06T12:27:35.180Z,1017.63
2022-12-06T12:28:35.171Z,1017.67
2022-12-06T12:29:35.195Z,1017.63
2022-12-06T12:30:35.165Z,1017.65
2022-12-06T12:31:35.142Z,1017.61
2022-12-06T12:32:35.116Z,1017.61
2022-12-06T12:33:35.142Z,1017.61
2022-12-06T12:34:40.145Z,1017.60
2022-12-06T12:35:36.120Z,1017.58
2022-12-06T12:36:35.059Z,1017.60
2022-12-06T12:37:35.083Z,1017.61
2022-12-06T12:38:35.071Z,1017.61
2022-12-06T12:39:35.038Z,1017.56
2022-12-06T12:40:35.028Z,1017.58
2022-12-06T12:41:35.042Z,1017.62
2022-12-06T12:42:35.015Z,1017.61
2022-12-06T12:43:34.994Z,1017.62
2022-12-06T12:44:37.937Z,1017.62
2022-12-06T12:45:35.026Z,1017.60
2022-12-06T12:46:35.079Z,1017.60
2022-12-06T12:47:34.940Z,1017.62
2022-12-06T12:48:34.934Z,1017.60
2022-12-06T12:49:34.914Z,1017.61
2022-12-06T12:50:34.926Z,1017.64
2022-12-06T12:51:34.897Z,1017.61
2022-12-06T12:52:34.877Z,1017.62
2022-12-06T12:53:34.858Z,1017.64
2022-12-06T12:54:34.847Z,1017.61
2022-12-06T12:55:34.868Z,1017.59
2022-12-06T12:56:34.827Z,1017.61
2022-12-06T12:57:34.795Z,1017.60
2022-12-06T12:58:36.328Z,1017.59
2022-12-06T12:59:34.791Z,1017.60
2022-12-06T13:00:34.775Z,1017.59
2022-12-06T13:01:34.839Z,1017.60
2022-12-06T13:02:34.802Z,1017.60
2022-12-06T13:03:50.701Z,1017.61
2022-12-06T13:04:35.742Z,1017.62
2022-12-06T13:05:35.460Z,1017.58
2022-12-06T13:06:34.675Z,1017.53
2022-12-06T13:07:34.726Z,1017.53
2022-12-06T13:08:34.670Z,1017.54
2022-12-06T13:09:34.661Z,1017.52
2022-12-06T13:10:34.671Z,1017.52
2022-12-06T13:11:34.617Z,1017.50
2022-12-06T13:12:34.609Z,1017.47
2022-12-06T13:13:34.610Z,1017.51
2022-12-06T13:14:34.588Z,1017.54
2022-12-06T13:15:34.565Z,1017.53
2022-12-06T13:16:34.614Z,1017.51
2022-12-06T13:17:34.566Z,1017.50
2022-12-06T13:18:34.537Z,1017.49
2022-12-06T13:19:34.538Z,1017.52
2022-12-06T13:20:34.540Z,1017.50
2022-12-06T13:21:34.523Z,1017.52
2022-12-06T13:22:34.540Z,1017.49
2022-12-06T13:23:34.501Z,1017.52
2022-12-06T13:24:34.459Z,1017.48
2022-12-06T13:25:34.450Z,1017.50
2022-12-06T13:26:34.466Z,1017.49
2022-12-06T13:27:34.455Z,1017.49
2022-12-06T13:28:34.421Z,1017.46
2022-12-06T13:29:34.399Z,1017.44
2022-12-06T13:30:34.529Z,1017.43
2022-12-06T13:31:34.390Z,1017.41
2022-12-06T13:32:34.379Z,1017.41
2022-12-06T13:33:34.380Z,1017.41
2022-12-06T13:34:37.665Z,1017.39
2022-12-06T13:35:34.318Z,1017.42
2022-12-06T13:36:34.320Z,1017.40
2022-12-06T13:37:34.345Z,1017.41
2022-12-06T13:38:34.278Z,1017.44
2022-12-06T13:39:34.332Z,1017.39
2022-12-06T13:40:34.267Z,1017.40
2022-12-06T13:41:34.242Z,1017.35
2022-12-06T13:42:34.248Z,1017.39
2022-12-06T13:43:39.497Z,1017.39
2022-12-06T13:49:16.430Z,1017.41
2022-12-06T13:50:23.938Z,1017.42
2022-12-06T13:51:23.898Z,1017.39
2022-12-06T13:52:16.376Z,1017.39
2022-12-06T13:53:16.361Z,1017.37
2022-12-06T13:54:16.365Z,1017.39
2022-12-06T13:55:17.579Z,1017.38
2022-12-06T13:56:16.453Z,1017.38
2022-12-06T13:57:16.332Z,1017.41
2022-12-06T13:58:16.331Z,1017.41
2022-12-06T13:59:16.277Z,1017.44
2022-12-06T14:00:16.304Z,1017.42
2022-12-06T14:01:16.349Z,1017.46
2022-12-06T14:02:16.414Z,1017.47
2022-12-06T14:03:16.268Z,1017.47
2022-12-06T14:04:16.244Z,1017.44
2022-12-06T14:05:25.986Z,1017.43
2022-12-06T14:06:16.353Z,1017.42
2022-12-06T14:07:47.897Z,1017.42
2022-12-06T14:08:47.525Z,1017.41
2022-12-06T14:09:48.053Z,1017.43
2022-12-06T14:10:48.822Z,1017.41
2022-12-06T14:11:47.612Z,1017.43
2022-12-06T14:12:48.857Z,1017.42
2022-12-06T14:13:47.813Z,1017.45
2022-12-06T14:14:47.695Z,1017.45
2022-12-06T14:15:47.791Z,1017.42
2022-12-06T14:16:47.515Z,1017.43
2022-12-06T14:18:03.011Z,1017.42
2022-12-06T14:18:48.416Z,1017.38
2022-12-06T14:19:47.309Z,1017.43
2022-12-06T14:20:48.747Z,1017.40
2022-12-06T14:21:48.545Z,1017.41
2022-12-06T14:22:48.516Z,1017.42
2022-12-06T14:23:47.335Z,1017.41
2022-12-06T14:24:47.366Z,1017.44
2022-12-06T14:25:47.452Z,1017.40
2022-12-06T14:26:47.297Z,1017.41
2022-12-06T14:27:47.386Z,1017.35
2022-12-06T14:28:47.327Z,1017.38
2022-12-06T14:29:47.303Z,1017.35
2022-12-06T14:30:47.355Z,1017.36
2022-12-06T14:31:47.238Z,1017.35
2022-12-06T14:32:47.235Z,1017.36
2022-12-06T14:33:47.255Z,1017.34
2022-12-06T14:34:47.199Z,1017.32
2022-12-06T14:35:47.262Z,1017.28
2022-12-06T14:36:47.307Z,1017.30
2022-12-06T14:37:47.192Z,1017.33
2022-12-06T14:38:47.161Z,1017.35
2022-12-06T14:39:47.120Z,1017.36
2022-12-06T14:40:47.803Z,1017.39
2022-12-06T14:41:47.136Z,1017.36
2022-12-06T14:42:47.288Z,1017.37
2022-12-06T14:43:47.141Z,1017.40
2022-12-06T14:44:47.291Z,1017.37
2022-12-06T14:45:47.225Z,1017.37
2022-12-06T14:46:47.440Z,1017.35
2022-12-06T14:47:47.096Z,1017.34
2022-12-06T14:48:47.103Z,1017.36
2022-12-06T14:49:47.017Z,1017.34
2022-12-06T14:50:47.287Z,1017.32
2022-12-06T14:51:47.128Z,1017.35
2022-12-06T14:52:47.010Z,1017.32
2022-12-06T14:53:47.042Z,1017.29
2022-12-06T14:54:46.951Z,1017.30
2022-12-06T14:55:47.140Z,1017.30
2022-12-06T14:56:46.913Z,1017.33
2022-12-06T14:57:46.895Z,1017.28
2022-12-06T14:58:46.919Z,1017.30
2022-12-06T15:00:14.883Z,1017.28
2022-12-06T15:00:47.847Z,1017.27
2022-12-06T15:01:46.965Z,1017.26
2022-12-06T15:02:46.813Z,1017.28
2022-12-06T15:03:46.931Z,1017.26
2022-12-06T15:04:46.986Z,1017.26
2022-12-06T15:05:46.900Z,1017.23
2022-12-06T15:06:46.779Z,1017.22
2022-12-06T15:07:46.971Z,1017.24
2022-12-06T15:08:51.821Z,1017.23
2022-12-06T15:09:47.761Z,1017.28
2022-12-06T15:10:46.767Z,1017.28
2022-12-06T15:11:46.903Z,1017.29
2022-12-06T15:12:46.777Z,1017.29
2022-12-06T15:13:46.842Z,1017.28
2022-12-06T15:14:46.752Z,1017.29
2022-12-06T15:15:46.735Z,1017.28
2022-12-06T15:16:46.642Z,1017.32
2022-12-06T15:17:46.645Z,1017.29
2022-12-06T15:18:46.619Z,1017.30
2022-12-06T15:19:46.644Z,1017.30
2022-12-06T15:20:46.599Z,1017.32
2022-12-06T15:21:46.609Z,1017.37
2022-12-06T15:22:46.706Z,1017.32
2022-12-06T15:23:46.784Z,1017.37
2022-12-06T15:24:46.578Z,1017.40
2022-12-06T15:25:46.570Z,1017.41
2022-12-06T15:26:46.636Z,1017.42
2022-12-06T15:27:46.521Z,1017.44
2022-12-06T15:28:46.549Z,1017.44
2022-12-06T15:29:46.602Z,1017.37
2022-12-06T15:30:46.770Z,1017.37
2022-12-06T15:31:46.637Z,1017.31
2022-12-06T15:32:46.413Z,1017.34
2022-12-06T15:33:46.672Z,1017.35
2022-12-06T15:34:46.575Z,1017.32
2022-12-06T15:35:46.370Z,1017.33
2022-12-06T15:36:46.499Z,1017.35
2022-12-06T15:37:50.274Z,1017.34
2022-12-06T15:38:46.509Z,1017.33
2022-12-06T15:39:46.363Z,1017.30
2022-12-06T15:40:46.402Z,1017.29
2022-12-06T15:41:46.463Z,1017.30
2022-12-06T15:42:46.425Z,1017.33
2022-12-06T15:43:46.261Z,1017.29
2022-12-06T15:44:49.459Z,1017.30
2022-12-06T15:45:46.268Z,1017.31
2022-12-06T15:46:46.340Z,1017.33
2022-12-06T15:47:46.321Z,1017.27
2022-12-06T15:48:46.260Z,1017.32
2022-12-06T15:49:46.213Z,1017.31
2022-12-06T15:50:46.226Z,1017.29
2022-12-06T15:51:46.146Z,1017.29
2022-12-06T15:52:46.157Z,1017.30
2022-12-06T15:53:46.124Z,1017.30
2022-12-06T15:54:46.100Z,1017.30
2022-12-06T15:55:46.123Z,1017.29
2022-12-06T15:56:46.056Z,1017.30
2022-12-06T15:57:46.040Z,1017.27
2022-12-06T15:58:46.034Z,1017.37
2022-12-06T15:59:46.040Z,1017.34
2022-12-06T16:00:46.014Z,1017.35
2022-12-06T16:01:46.068Z,1017.35
2022-12-06T16:02:45.976Z,1017.36
2022-12-06T16:03:46.000Z,1017.33
2022-12-06T16:04:45.957Z,1017.32
2022-12-06T16:05:45.950Z,1017.31
2022-12-06T16:06:45.940Z,1017.28
2022-12-06T16:07:45.967Z,1017.28
2022-12-06T16:08:45.900Z,1017.28
2022-12-06T16:09:45.884Z,1017.30
2022-12-06T16:11:46.856Z,1017.29
2022-12-06T16:12:45.847Z,1017.32
2022-12-06T16:13:45.863Z,1017.28
2022-12-06T16:14:45.821Z,1017.29
2022-12-06T16:15:45.835Z,1017.32
2022-12-06T16:16:45.847Z,1017.34
2022-12-06T16:17:45.799Z,1017.32
2022-12-06T16:18:45.775Z,1017.39
2022-12-06T16:19:45.754Z,1017.34
2022-12-06T16:20:45.745Z,1017.35
2022-12-06T16:21:45.744Z,1017.35
2022-12-06T16:22:45.721Z,1017.31
2022-12-06T16:24:52.305Z,1017.27
2022-12-06T16:25:46.673Z,1017.25
2022-12-06T16:26:45.977Z,1017.27
2022-12-06T16:27:45.657Z,1017.28
2022-12-06T16:28:45.646Z,1017.25
2022-12-06T16:29:45.614Z,1017.29
2022-12-06T16:30:45.626Z,1017.21
2022-12-06T16:31:45.714Z,1017.25
2022-12-06T16:32:46.240Z,1017.22
2022-12-06T16:33:45.604Z,1017.22
2022-12-06T16:34:45.553Z,1017.26
2022-12-06T16:35:46.251Z,1017.20
2022-12-06T16:36:45.646Z,1017.21
2022-12-06T16:37:45.526Z,1017.22
2022-12-06T16:38:45.761Z,1017.22
2022-12-06T16:39:45.514Z,1017.21
2022-12-06T16:40:45.647Z,1017.23
2022-12-06T16:41:48.323Z,1017.22
2022-12-06T16:42:46.392Z,1017.18
2022-12-06T16:43:45.449Z,1017.16
2022-12-06T16:44:45.456Z,1017.18
2022-12-06T16:45:45.412Z,1017.19
2022-12-06T16:46:45.478Z,1017.18
2022-12-06T16:47:45.371Z,1017.15
2022-12-06T16:48:45.377Z,1017.17
2022-12-06T16:49:47.495Z,1017.15
2022-12-06T16:50:45.345Z,1017.14
2022-12-06T16:51:45.347Z,1017.15
2022-12-06T16:52:45.342Z,1017.10
2022-12-06T16:53:45.310Z,1017.10
2022-12-06T16:54:45.292Z,1017.09
2022-12-06T16:55:45.296Z,1017.09
2022-12-06T16:56:45.265Z,1017.06
2022-12-06T16:57:45.247Z,1017.08
2022-12-06T16:58:45.230Z,1017.07
2022-12-06T16:59:45.239Z,1017.01
2022-12-06T17:00:45.304Z,1017.03
2022-12-06T17:01:45.220Z,1016.98
2022-12-06T17:02:45.215Z,1017.01
2022-12-06T17:03:45.180Z,1017.03
2022-12-06T17:04:45.163Z,1016.99